Wray, Colorado
Current Conditions -  °F | °C
As of 6:15 AM on Tuesday 21 Oct 2014 (Local Time) from K2V5 Reporting Station
Clear Clear  
Wind Chill: 53°   Ceiling: Unl
Heat Index: 53°   Visibility: 10mi
Dew Point: 51°   Wind: 6mph
Humidity: 92%   Direction: 190°S
Pressure: 30.02"   Gusts: NA
Location:  40.08°N, 102.22°W
Report Text: K2V5 211215Z AUTO 19005KT 10SM CLR 12/10 A3002 RMK AO2 T01150103
Loading
Personal Weather Stations






























Interactive Weather Map
Tropical Storm Tracking
New forecast layout! Learn more

10-Day Weather Forecast

Advertisements
Track Severe Weather on mobile